Time;durP1;ratioP1;P1;durP2;ratioP2;P2;SDS_P1;SDS_P2;PMS_P1;PMS_P2;Temp;Humidity;BMP_temperature;BMP_pressure;BME280_temperature;BME280_humidity;BME280_pressure;Samples;Min_cycle;Max_cycle;Signal;HPM_P1;HPM_P2
2019/08/08 00:01:40;;;;;;;4.5;3.3;;;;;;;16.88;100;957.8631;;;;
2019/08/08 00:04:04;;;;;;;4.9;3.5;;;;;;;16.89;100;957.8663;;;;
2019/08/08 00:06:29;;;;;;;4.4;3.5;;;;;;;16.9;100;957.8514;;;;
2019/08/08 00:08:54;;;;;;;4.1;3.7;;;;;;;16.88;100;957.8688;;;;
2019/08/08 00:11:19;;;;;;;7.6;4.4;;;;;;;16.81;100;957.8469;;;;
2019/08/08 00:13:45;;;;;;;5.8;3.9;;;;;;;16.9;100;957.8717;;;;
2019/08/08 00:16:10;;;;;;;5.5;4.3;;;;;;;16.89;100;957.8981;;;;
2019/08/08 00:18:35;;;;;;;6.1;4.8;;;;;;;16.89;100;957.8744;;;;
2019/08/08 00:21:01;;;;;;;6;4.8;;;;;;;16.86;100;957.9117;;;;
2019/08/08 00:23:26;;;;;;;5.4;4.9;;;;;;;16.89;100;957.9509;;;;
2019/08/08 00:25:51;;;;;;;6;4.6;;;;;;;16.92;100;957.954;;;;
2019/08/08 00:28:17;;;;;;;6.4;5.6;;;;;;;16.95;100;957.9571;;;;
2019/08/08 00:30:42;;;;;;;5.8;4.5;;;;;;;17.01;100;957.9961;;;;
2019/08/08 00:33:07;;;;;;;6.8;5;;;;;;;17;100;957.9855;;;;
2019/08/08 00:35:32;;;;;;;7.3;5.6;;;;;;;16.93;100;958.0471;;;;
2019/08/08 00:37:57;;;;;;;8.6;5.4;;;;;;;16.96;100;958.0441;;;;
2019/08/08 00:40:22;;;;;;;5.6;5.1;;;;;;;17.1;99.7959;958.0307;;;;
2019/08/08 00:42:48;;;;;;;5.4;4.9;;;;;;;17.02;100;958.0133;;;;
2019/08/08 00:45:14;;;;;;;5.9;5;;;;;;;17.08;100;958.0284;;;;
2019/08/08 00:47:39;;;;;;;6.6;5.7;;;;;;;17.05;100;958.0024;;;;
2019/08/08 00:50:04;;;;;;;6.8;5.3;;;;;;;17.04;100;957.9916;;;;
2019/08/08 00:52:29;;;;;;;6.1;5.5;;;;;;;17.06;100;958.0106;;;;
2019/08/08 00:54:54;;;;;;;6.5;5.8;;;;;;;17.05;100;958.0263;;;;
2019/08/08 00:57:19;;;;;;;8.2;6.2;;;;;;;17.05;100;957.9932;;;;
2019/08/08 00:59:44;;;;;;;8.5;7;;;;;;;17.03;100;958.0042;;;;
2019/08/08 01:02:09;;;;;;;7.4;6.7;;;;;;;16.97;100;958.0203;;;;
2019/08/08 01:04:34;;;;;;;6.9;6.2;;;;;;;16.95;100;958.0056;;;;
2019/08/08 01:07:00;;;;;;;7.3;6.6;;;;;;;16.99;100;958.0087;;;;
2019/08/08 01:09:25;;;;;;;7.7;7;;;;;;;16.97;100;957.9857;;;;
2019/08/08 01:11:50;;;;;;;8.9;6.8;;;;;;;17.02;100;957.9895;;;;
2019/08/08 01:14:15;;;;;;;7.3;6.3;;;;;;;17.1;100;958.0208;;;;
2019/08/08 01:16:40;;;;;;;7.7;7;;;;;;;17.04;100;958.0171;;;;
2019/08/08 01:19:05;;;;;;;6.6;6;;;;;;;17.18;100;958.0853;;;;
2019/08/08 01:21:30;;;;;;;6.9;6.3;;;;;;;17.2;100;958.1269;;;;
2019/08/08 01:23:55;;;;;;;7.3;6.6;;;;;;;17.2;100;958.0939;;;;
2019/08/08 01:26:20;;;;;;;8.4;7.1;;;;;;;17.17;100;958.193;;;;
2019/08/08 01:28:45;;;;;;;7.9;7.1;;;;;;;17.1;100;958.1796;;;;
2019/08/08 01:31:10;;;;;;;8.1;7.3;;;;;;;17.1;100;958.197;;;;
2019/08/08 01:33:38;;;;;;;7.2;6.6;;;;;;;17.16;100;958.2081;;;;
2019/08/08 01:36:01;;;;;;;7.6;6.8;;;;;;;17.23;100;958.2806;;;;
2019/08/08 01:38:25;;;;;;;8;7.2;;;;;;;17.17;100;958.3761;;;;
2019/08/08 01:40:50;;;;;;;7.4;6.7;;;;;;;17.18;100;958.3331;;;;
2019/08/08 01:43:16;;;;;;;7.7;6.9;;;;;;;17.21;100;958.3667;;;;
2019/08/08 01:45:41;;;;;;;7.6;6.8;;;;;;;17.19;100;958.3395;;;;
2019/08/08 01:48:06;;;;;;;8.1;7.3;;;;;;;17.12;100;958.3929;;;;
2019/08/08 01:50:31;;;;;;;7.3;6.6;;;;;;;17.22;100;958.3961;;;;
2019/08/08 01:52:56;;;;;;;7.9;7.1;;;;;;;17.23;100;958.4371;;;;
2019/08/08 01:55:21;;;;;;;7.8;7.1;;;;;;;17.18;100;958.3957;;;;
2019/08/08 01:57:47;;;;;;;9;7.3;;;;;;;17.11;100;958.3787;;;;
2019/08/08 02:00:12;;;;;;;9.1;7.3;;;;;;;17.1;100;958.3822;;;;
2019/08/08 02:02:37;;;;;;;8.8;8;;;;;;;17.03;100;958.4208;;;;
2019/08/08 02:05:02;;;;;;;7.8;7;;;;;;;17.12;100;958.416;;;;
2019/08/08 02:07:27;;;;;;;8.5;7.6;;;;;;;17.14;100;958.4543;;;;
2019/08/08 02:09:52;;;;;;;7.7;6.9;;;;;;;17.19;100;958.4366;;;;
2019/08/08 02:12:17;;;;;;;8.3;7.5;;;;;;;17.17;100;958.4297;;;;
2019/08/08 02:14:42;;;;;;;8.5;7.7;;;;;;;17.1;100;958.4283;;;;
2019/08/08 02:17:07;;;;;;;8.5;7.6;;;;;;;17.09;100;958.389;;;;
2019/08/08 02:19:33;;;;;;;9;8.1;;;;;;;17.1;100;958.426;;;;
2019/08/08 02:21:58;;;;;;;8.9;8;;;;;;;17.13;100;958.3994;;;;
2019/08/08 02:24:23;;;;;;;8.4;7.6;;;;;;;17.18;100;958.3906;;;;
2019/08/08 02:26:49;;;;;;;8.6;7.8;;;;;;;17.17;100;958.4171;;;;
2019/08/08 02:29:14;;;;;;;9;8.2;;;;;;;17.15;100;958.415;;;;
2019/08/08 02:31:39;;;;;;;9.8;8;;;;;;;17.13;100;958.4199;;;;
2019/08/08 02:34:04;;;;;;;10;9;;;;;;;17.08;100;958.427;;;;
2019/08/08 02:36:30;;;;;;;9.5;8.6;;;;;;;17.12;100;958.425;;;;
2019/08/08 02:38:55;;;;;;;8.4;7.6;;;;;;;17.2;100;958.4367;;;;
2019/08/08 02:41:20;;;;;;;8.2;7.5;;;;;;;17.21;100;958.4342;;;;
2019/08/08 02:43:45;;;;;;;8.3;7.5;;;;;;;17.2;100;958.3997;;;;
2019/08/08 02:46:10;;;;;;;8.4;7.6;;;;;;;17.25;100;958.405;;;;
2019/08/08 02:48:36;;;;;;;9.1;8.3;;;;;;;17.22;100;958.3409;;;;
2019/08/08 02:51:01;;;;;;;8.3;7.5;;;;;;;17.22;100;958.4034;;;;
2019/08/08 02:53:26;;;;;;;8.8;7.9;;;;;;;17.25;100;958.3834;;;;
2019/08/08 02:55:51;;;;;;;9.6;8.7;;;;;;;17.18;100;958.3578;;;;
2019/08/08 02:58:16;;;;;;;8.7;7.9;;;;;;;17.21;100;958.355;;;;
2019/08/08 03:00:42;;;;;;;8.8;8;;;;;;;17.27;100;958.3884;;;;
2019/08/08 03:03:07;;;;;;;8.4;7.6;;;;;;;17.29;100;958.3817;;;;
2019/08/08 03:05:32;;;;;;;10.4;9.4;;;;;;;17.16;100;958.3373;;;;
2019/08/08 03:07:57;;;;;;;10.5;9.5;;;;;;;17.14;100;958.3069;;;;
2019/08/08 03:10:22;;;;;;;10.1;9.2;;;;;;;17.13;100;958.3212;;;;
2019/08/08 03:12:47;;;;;;;10.4;9.4;;;;;;;17.13;100;958.3367;;;;
2019/08/08 03:15:13;;;;;;;10.3;9.4;;;;;;;17.14;100;958.3253;;;;
2019/08/08 03:17:38;;;;;;;10.6;9.6;;;;;;;17.1;100;958.3328;;;;
2019/08/08 03:20:03;;;;;;;11.2;10.1;;;;;;;17.03;100;958.3204;;;;
2019/08/08 03:22:28;;;;;;;10.1;9.2;;;;;;;17.07;100;958.3356;;;;
2019/08/08 03:24:53;;;;;;;10.1;9.2;;;;;;;17.1;100;958.313;;;;
2019/08/08 03:27:18;;;;;;;9.8;8.9;;;;;;;17.15;100;958.2914;;;;
2019/08/08 03:29:44;;;;;;;9.2;8.4;;;;;;;17.2;100;958.3401;;;;
2019/08/08 03:32:09;;;;;;;10.6;9.6;;;;;;;17.13;100;958.3442;;;;
2019/08/08 03:34:34;;;;;;;10.2;9.3;;;;;;;17.1;100;958.3666;;;;
2019/08/08 03:37:00;;;;;;;9.8;9;;;;;;;17.09;100;958.3438;;;;
2019/08/08 03:39:25;;;;;;;10.4;9.5;;;;;;;16.97;100;958.3677;;;;
2019/08/08 03:41:50;;;;;;;10.8;9.8;;;;;;;16.97;100;958.3513;;;;
2019/08/08 03:44:15;;;;;;;9.6;8.7;;;;;;;17.03;100;958.355;;;;
2019/08/08 03:46:40;;;;;;;10.6;9.6;;;;;;;17;100;958.426;;;;
2019/08/08 03:49:06;;;;;;;11.4;10.2;;;;;;;16.97;100;958.4263;;;;
2019/08/08 03:51:31;;;;;;;10.3;9.3;;;;;;;17.04;100;958.498;;;;
2019/08/08 03:53:56;;;;;;;10.6;9.6;;;;;;;17.04;100;958.5145;;;;
2019/08/08 03:56:21;;;;;;;11.3;10.2;;;;;;;16.97;100;958.4642;;;;
2019/08/08 04:03:17;;;;;;;12;10.7;;;;;;;16.9;100;958.462;;;;
2019/08/08 04:05:42;;;;;;;11.5;10.4;;;;;;;16.96;100;958.5137;;;;
2019/08/08 04:08:07;;;;;;;11.6;10.5;;;;;;;16.93;100;958.4791;;;;
2019/08/08 04:10:32;;;;;;;12.5;11.3;;;;;;;16.96;100;958.4849;;;;
2019/08/08 04:12:57;;;;;;;11.5;10.4;;;;;;;16.95;100;958.4847;;;;
2019/08/08 04:15:22;;;;;;;11;10;;;;;;;16.99;100;958.5151;;;;
2019/08/08 04:17:47;;;;;;;11.7;10.6;;;;;;;16.95;100;958.5374;;;;
2019/08/08 04:20:12;;;;;;;12.6;11.3;;;;;;;16.93;100;958.5295;;;;
2019/08/08 04:22:37;;;;;;;11.2;10.2;;;;;;;16.96;100;958.5142;;;;
2019/08/08 04:25:02;;;;;;;12.8;11.2;;;;;;;16.94;100;958.5286;;;;
2019/08/08 04:27:29;;;;;;;13;11.7;;;;;;;16.91;100;958.5213;;;;
2019/08/08 04:29:52;;;;;;;12.7;11.5;;;;;;;16.97;100;958.5366;;;;
2019/08/08 04:32:18;;;;;;;12.6;11.4;;;;;;;16.99;100;958.5733;;;;
2019/08/08 04:34:43;;;;;;;11.4;10.4;;;;;;;17.05;100;958.5731;;;;
2019/08/08 04:37:08;;;;;;;12.4;11.2;;;;;;;17.04;100;958.5566;;;;
2019/08/08 04:39:34;;;;;;;12.7;11.5;;;;;;;17.1;100;958.5404;;;;
2019/08/08 04:41:59;;;;;;;13;11.8;;;;;;;17.09;100;958.5908;;;;
2019/08/08 04:44:24;;;;;;;12.1;11.1;;;;;;;17.12;100;958.584;;;;
2019/08/08 04:46:49;;;;;;;12.9;11.7;;;;;;;17.17;100;958.5488;;;;
2019/08/08 04:49:14;;;;;;;13.9;12.4;;;;;;;17.06;100;958.5457;;;;
2019/08/08 04:51:39;;;;;;;13.6;12.3;;;;;;;17.04;100;958.5237;;;;
2019/08/08 04:54:04;;;;;;;13.9;12.5;;;;;;;17.07;100;958.5101;;;;
2019/08/08 04:56:30;;;;;;;12.8;11.6;;;;;;;17.17;100;958.5424;;;;
2019/08/08 04:58:55;;;;;;;13.9;12.6;;;;;;;17.11;100;958.4672;;;;
2019/08/08 05:01:20;;;;;;;14.4;13;;;;;;;17.19;100;958.4846;;;;
2019/08/08 05:03:46;;;;;;;14.4;13;;;;;;;17.21;100;958.4662;;;;
2019/08/08 05:06:11;;;;;;;13.8;12.5;;;;;;;17.22;100;958.5066;;;;
2019/08/08 05:08:36;;;;;;;12.5;11.3;;;;;;;17.28;100;958.5108;;;;
2019/08/08 05:11:01;;;;;;;13.6;12.3;;;;;;;17.23;100;958.527;;;;
2019/08/08 05:13:27;;;;;;;13.3;12.1;;;;;;;17.2;100;958.5875;;;;
2019/08/08 05:15:52;;;;;;;11.9;10.8;;;;;;;17.31;99.64355;958.6053;;;;
2019/08/08 05:18:17;;;;;;;12.3;11.1;;;;;;;17.25;99.93555;958.6264;;;;
2019/08/08 05:20:42;;;;;;;10.9;9.9;;;;;;;17.3;99.875;958.5513;;;;
2019/08/08 05:23:07;;;;;;;11.1;10.1;;;;;;;17.3;99.47852;958.543;;;;
2019/08/08 05:25:33;;;;;;;11.1;10;;;;;;;17.39;99.41699;958.5447;;;;
2019/08/08 05:27:58;;;;;;;10.9;9.9;;;;;;;17.3;98.63867;958.537;;;;
2019/08/08 05:30:23;;;;;;;10.2;9.2;;;;;;;17.24;99.59473;958.699;;;;
2019/08/08 05:32:49;;;;;;;10.3;9.2;;;;;;;17.27;98.80566;958.6956;;;;
2019/08/08 05:35:14;;;;;;;9.8;8.9;;;;;;;17.31;99.56152;958.7083;;;;
2019/08/08 05:37:39;;;;;;;9.9;9;;;;;;;17.43;99.74219;958.7559;;;;
2019/08/08 05:40:04;;;;;;;10.3;9.4;;;;;;;17.35;99.06934;958.7403;;;;
2019/08/08 05:42:29;;;;;;;10.9;9.8;;;;;;;17.43;98.17578;958.741;;;;
2019/08/08 05:44:54;;;;;;;10.4;9.3;;;;;;;17.38;99.14551;958.767;;;;
2019/08/08 05:47:20;;;;;;;9.6;8.7;;;;;;;17.49;98.09375;958.8032;;;;
2019/08/08 05:49:45;;;;;;;9.5;8.7;;;;;;;17.5;98.77637;958.832;;;;
2019/08/08 05:52:10;;;;;;;11.2;9.7;;;;;;;17.44;97.25391;958.8416;;;;
2019/08/08 05:56:18;;;;;;;10.2;9.2;;;;;;;17.58;99.07324;958.8666;;;;
2019/08/08 05:58:43;;;;;;;9.4;8.5;;;;;;;17.64;98.89063;958.9137;;;;
2019/08/08 06:01:09;;;;;;;8.2;7.4;;;;;;;17.75;98.27148;958.9992;;;;
2019/08/08 06:03:33;;;;;;;8;7.3;;;;;;;17.83;96.41699;959.0385;;;;
2019/08/08 06:05:58;;;;;;;7.4;6.7;;;;;;;17.92;95.95605;959.0557;;;;
2019/08/08 06:08:23;;;;;;;7.5;6.8;;;;;;;18;96.74707;959.1083;;;;
2019/08/08 06:10:48;;;;;;;7.6;7;;;;;;;17.92;96.63574;959.0853;;;;
2019/08/08 06:13:13;;;;;;;7.6;6.9;;;;;;;17.93;97.15234;959.105;;;;
2019/08/08 06:15:38;;;;;;;7.9;7.1;;;;;;;17.96;96.93555;959.1821;;;;
2019/08/08 06:18:03;;;;;;;9.9;6.8;;;;;;;18.1;96.93262;959.2286;;;;
2019/08/08 06:20:28;;;;;;;8;7.2;;;;;;;18.07;95.21484;959.2601;;;;
2019/08/08 06:22:54;;;;;;;7.2;6.4;;;;;;;17.96;95.25;959.2078;;;;
2019/08/08 06:25:19;;;;;;;7.5;6.7;;;;;;;17.94;95.87891;959.2813;;;;
2019/08/08 06:27:44;;;;;;;7.8;7;;;;;;;18.03;96.35449;959.2383;;;;
2019/08/08 06:30:09;;;;;;;7.3;6;;;;;;;18.19;95.80469;959.1766;;;;
2019/08/08 06:32:34;;;;;;;6.1;5.5;;;;;;;18.29;94.02148;959.1422;;;;
2019/08/08 06:34:59;;;;;;;5.3;4.8;;;;;;;18.46;92.27441;959.1205;;;;
2019/08/08 06:37:24;;;;;;;5.5;5;;;;;;;18.58;91.02344;959.0934;;;;
2019/08/08 06:39:49;;;;;;;5.9;5.3;;;;;;;18.38;91.4043;959.2172;;;;
2019/08/08 06:42:15;;;;;;;6.2;5.2;;;;;;;18.24;92.99121;959.0966;;;;
2019/08/08 06:44:40;;;;;;;6.8;5.8;;;;;;;18.2;92.86621;959.1292;;;;
2019/08/08 06:47:05;;;;;;;6.6;5.7;;;;;;;18.33;92.96289;959.0764;;;;
2019/08/08 06:49:30;;;;;;;7.5;5.3;;;;;;;18.47;93.30957;959.1641;;;;
2019/08/08 06:51:55;;;;;;;5.4;4.9;;;;;;;18.56;90.79688;959.153;;;;
2019/08/08 06:54:21;;;;;;;5.4;4.9;;;;;;;18.47;91.09668;959.1944;;;;
2019/08/08 06:56:46;;;;;;;6.1;4.7;;;;;;;18.55;91.50977;959.2167;;;;
2019/08/08 06:59:11;;;;;;;4.8;4.3;;;;;;;18.56;91.42969;959.2289;;;;
2019/08/08 07:01:36;;;;;;;4.9;4.4;;;;;;;18.55;91.20508;959.2332;;;;
2019/08/08 07:04:01;;;;;;;4.7;4.3;;;;;;;18.59;90.98047;959.1772;;;;
2019/08/08 07:06:27;;;;;;;5.5;4.9;;;;;;;18.58;90.82422;959.1933;;;;
2019/08/08 07:08:52;;;;;;;4.7;4.1;;;;;;;18.75;91.12891;959.1861;;;;
2019/08/08 07:11:17;;;;;;;4.5;4.1;;;;;;;18.77;90.95703;959.1604;;;;
2019/08/08 07:13:42;;;;;;;6.3;4.5;;;;;;;18.84;91.03223;959.2056;;;;
2019/08/08 07:16:07;;;;;;;5.8;4.3;;;;;;;18.85;90.55078;959.2263;;;;
2019/08/08 07:18:33;;;;;;;4.9;4;;;;;;;19.08;89.06152;959.326;;;;
2019/08/08 07:20:58;;;;;;;5.7;3.7;;;;;;;19.01;90.2793;959.3494;;;;
2019/08/08 07:23:23;;;;;;;5.4;4;;;;;;;19.01;89.03711;959.4146;;;;
2019/08/08 07:25:48;;;;;;;5.6;4;;;;;;;19.05;89.05566;959.4207;;;;
2019/08/08 07:28:13;;;;;;;4.4;3.8;;;;;;;19.17;90.25391;959.4222;;;;
2019/08/08 07:30:38;;;;;;;4.4;4;;;;;;;19.25;88.9668;959.3517;;;;
2019/08/08 07:33:03;;;;;;;4.7;4.1;;;;;;;19.17;89.44336;959.4239;;;;
2019/08/08 07:35:28;;;;;;;4.7;3.7;;;;;;;19.19;88.29688;959.4384;;;;
2019/08/08 07:37:54;;;;;;;5.9;4.3;;;;;;;;;;;;;
2019/08/08 07:40:19;;;;;;;4.6;4;;;;;;;;;;;;;
2019/08/08 07:42:44;;;;;;;5.4;4.1;;;;;;;;;;;;;
2019/08/08 07:45:09;;;;;;;5.9;4;;;;;;;;;;;;;
2019/08/08 07:47:34;;;;;;;4.3;3.9;;;;;;;;;;;;;
2019/08/08 07:49:59;;;;;;;4.4;4;;;;;;;;;;;;;
2019/08/08 07:52:24;;;;;;;5.4;3.9;;;;;;;;;;;;;
2019/08/08 07:54:49;;;;;;;4.2;3.8;;;;;;;;;;;;;
2019/08/08 07:57:14;;;;;;;3.8;3.2;;;;;;;;;;;;;
2019/08/08 07:59:39;;;;;;;4.6;3.3;;;;;;;;;;;;;
2019/08/08 08:02:05;;;;;;;3.7;3.3;;;;;;;;;;;;;
2019/08/08 08:04:30;;;;;;;4.2;3.7;;;;;;;;;;;;;
2019/08/08 08:06:55;;;;;;;3.9;3.3;;;;;;;;;;;;;
2019/08/08 08:09:20;;;;;;;4.6;3.5;;;;;;;;;;;;;
2019/08/08 08:11:45;;;;;;;4.1;3.2;;;;;;;;;;;;;
2019/08/08 08:14:10;;;;;;;3.7;3.3;;;;;;;;;;;;;
2019/08/08 08:16:35;;;;;;;3.6;3.3;;;;;;;;;;;;;
2019/08/08 08:19:00;;;;;;;3.5;3.1;;;;;;;;;;;;;
2019/08/08 08:21:25;;;;;;;4.5;2.5;;;;;;;;;;;;;
2019/08/08 08:23:50;;;;;;;3.6;2.4;;;;;;;;;;;;;
2019/08/08 08:26:15;;;;;;;2.6;2.4;;;;;;;;;;;;;
2019/08/08 08:28:40;;;;;;;3.2;2.4;;;;;;;;;;;;;
2019/08/08 08:31:05;;;;;;;3.1;2.5;;;;;;;;;;;;;
2019/08/08 08:33:31;;;;;;;2.3;2;;;;;;;;;;;;;
2019/08/08 08:35:56;;;;;;;2.7;2;;;;;;;;;;;;;
2019/08/08 08:38:21;;;;;;;2.6;2.4;;;;;;;;;;;;;
2019/08/08 08:40:46;;;;;;;3.1;2.2;;;;;;;;;;;;;
2019/08/08 08:43:11;;;;;;;2.1;1.9;;;;;;;;;;;;;
2019/08/08 08:45:36;;;;;;;2.5;1.8;;;;;;;;;;;;;
2019/08/08 08:48:01;;;;;;;2.5;1.8;;;;;;;;;;;;;
2019/08/08 08:50:26;;;;;;;2.7;2;;;;;;;;;;;;;
2019/08/08 08:52:52;;;;;;;2.6;1.7;;;;;;;;;;;;;
2019/08/08 08:55:17;;;;;;;1.9;1.8;;;;;;;;;;;;;
2019/08/08 08:57:42;;;;;;;2.6;2.1;;;;;;;;;;;;;
2019/08/08 09:00:07;;;;;;;2;1.8;;;;;;;;;;;;;
2019/08/08 09:02:32;;;;;;;2.6;2.2;;;;;;;;;;;;;
2019/08/08 09:04:57;;;;;;;2.5;1.8;;;;;;;;;;;;;
2019/08/08 09:07:22;;;;;;;2.3;1.7;;;;;;;;;;;;;
2019/08/08 09:09:47;;;;;;;3;1.7;;;;;;;;;;;;;
2019/08/08 09:12:12;;;;;;;2.3;1.9;;;;;;;;;;;;;
2019/08/08 09:14:37;;;;;;;1.9;1.7;;;;;;;;;;;;;
2019/08/08 09:17:02;;;;;;;2.1;1.8;;;;;;;;;;;;;
2019/08/08 09:19:28;;;;;;;2.3;1.8;;;;;;;;;;;;;
2019/08/08 09:21:53;;;;;;;2;1.6;;;;;;;;;;;;;
2019/08/08 09:24:18;;;;;;;2;1.8;;;;;;;;;;;;;
2019/08/08 09:26:43;;;;;;;2.5;1.8;;;;;;;;;;;;;
2019/08/08 09:29:08;;;;;;;1.9;1.7;;;;;;;;;;;;;
2019/08/08 09:31:33;;;;;;;1.7;1.6;;;;;;;;;;;;;
2019/08/08 09:33:58;;;;;;;2;1.7;;;;;;;;;;;;;
2019/08/08 09:36:23;;;;;;;2.7;1.8;;;;;;;;;;;;;
2019/08/08 09:38:48;;;;;;;1.9;1.7;;;;;;;;;;;;;
2019/08/08 09:41:13;;;;;;;2;1.8;;;;;;;;;;;;;
2019/08/08 09:43:39;;;;;;;2;1.8;;;;;;;;;;;;;
2019/08/08 09:46:04;;;;;;;1.8;1.7;;;;;;;;;;;;;
2019/08/08 09:48:29;;;;;;;2.2;1.8;;;;;;;;;;;;;
2019/08/08 09:50:54;;;;;;;2;1.7;;;;;;;;;;;;;
2019/08/08 09:53:19;;;;;;;2.2;1.9;;;;;;;;;;;;;
2019/08/08 09:55:44;;;;;;;2.5;1.8;;;;;;;;;;;;;
2019/08/08 09:58:09;;;;;;;1.7;1.6;;;;;;;;;;;;;
2019/08/08 10:00:34;;;;;;;2;1.7;;;;;;;;;;;;;
2019/08/08 10:03:00;;;;;;;2;1.5;;;;;;;;;;;;;
2019/08/08 10:05:25;;;;;;;1.4;1.3;;;;;;;;;;;;;
2019/08/08 10:07:50;;;;;;;1.6;1.5;;;;;;;;;;;;;
2019/08/08 10:10:15;;;;;;;1.8;1.6;;;;;;;;;;;;;
2019/08/08 10:12:40;;;;;;;1.6;1.5;;;;;;;;;;;;;
2019/08/08 10:15:05;;;;;;;2.1;1.4;;;;;;;;;;;;;
2019/08/08 10:17:30;;;;;;;1.8;1.3;;;;;;;;;;;;;
2019/08/08 10:19:55;;;;;;;1.9;1.5;;;;;;;;;;;;;
2019/08/08 10:22:20;;;;;;;1.6;1.5;;;;;;;;;;;;;
2019/08/08 10:24:46;;;;;;;1.9;1.5;;;;;;;;;;;;;
2019/08/08 10:27:11;;;;;;;2.3;1.6;;;;;;;;;;;;;
2019/08/08 10:29:36;;;;;;;2.2;1.3;;;;;;;;;;;;;
2019/08/08 10:32:01;;;;;;;2.3;1.5;;;;;;;;;;;;;
2019/08/08 10:34:26;;;;;;;1.7;1.6;;;;;;;;;;;;;
2019/08/08 10:36:51;;;;;;;2.9;1.7;;;;;;;;;;;;;
2019/08/08 10:39:16;;;;;;;1.6;1.5;;;;;;;;;;;;;
2019/08/08 10:41:41;;;;;;;1.8;1.5;;;;;;;;;;;;;
2019/08/08 10:44:06;;;;;;;2.2;1.6;;;;;;;;;;;;;
2019/08/08 10:46:31;;;;;;;1.5;1.4;;;;;;;;;;;;;
2019/08/08 10:48:56;;;;;;;1.5;1.4;;;;;;;;;;;;;
2019/08/08 10:51:21;;;;;;;2;1.4;;;;;;;;;;;;;
2019/08/08 10:53:47;;;;;;;2.1;1.5;;;;;;;;;;;;;
2019/08/08 10:56:12;;;;;;;1.3;1.2;;;;;;;;;;;;;
2019/08/08 10:58:37;;;;;;;4.4;1.5;;;;;;;;;;;;;
2019/08/08 11:01:02;;;;;;;2.4;1.4;;;;;;;;;;;;;
2019/08/08 11:03:27;;;;;;;1.4;1.2;;;;;;;;;;;;;
2019/08/08 11:05:52;;;;;;;2.8;1.8;;;;;;;;;;;;;
2019/08/08 11:08:17;;;;;;;1.6;1.3;;;;;;;;;;;;;
2019/08/08 11:10:42;;;;;;;1.6;1.5;;;;;;;;;;;;;
2019/08/08 11:13:07;;;;;;;1.5;1.4;;;;;;;;;;;;;
2019/08/08 11:15:33;;;;;;;2.4;1.5;;;;;;;;;;;;;
2019/08/08 11:17:58;;;;;;;1.9;1.6;;;;;;;;;;;;;
2019/08/08 11:20:23;;;;;;;2.1;1.4;;;;;;;;;;;;;
2019/08/08 11:22:48;;;;;;;1.8;1.5;;;;;;;;;;;;;
2019/08/08 11:25:13;;;;;;;2.8;1.4;;;;;;;;;;;;;
2019/08/08 11:27:38;;;;;;;1.7;1.6;;;;;;;;;;;;;
2019/08/08 11:30:03;;;;;;;2.2;1.5;;;;;;;;;;;;;
2019/08/08 11:32:28;;;;;;;1.7;1.5;;;;;;;;;;;;;
2019/08/08 11:34:53;;;;;;;1.6;1.3;;;;;;;;;;;;;
2019/08/08 11:37:18;;;;;;;1.4;1.3;;;;;;;;;;;;;
2019/08/08 11:39:43;;;;;;;2.4;1.7;;;;;;;;;;;;;
2019/08/08 11:42:08;;;;;;;2.2;1.5;;;;;;;;;;;;;
2019/08/08 11:44:33;;;;;;;2.5;1.4;;;;;;;;;;;;;
2019/08/08 11:46:58;;;;;;;1.6;1.4;;;;;;;;;;;;;
2019/08/08 11:49:23;;;;;;;1.4;1.3;;;;;;;;;;;;;
2019/08/08 11:51:49;;;;;;;2.2;1.4;;;;;;;;;;;;;
2019/08/08 11:56:58;;;;;;;1.8;1.4;;;;;;;23.87;58.2959;959.2356;;;;
2019/08/08 11:59:23;;;;;;;2.9;1.4;;;;;;;23.43;58.29688;959.1898;;;;
2019/08/08 12:01:48;;;;;;;1.7;1.4;;;;;;;23.23;58.69629;959.1247;;;;
2019/08/08 12:04:13;;;;;;;3.5;1.4;;;;;;;23.14;58.40039;959.1317;;;;
2019/08/08 12:06:38;;;;;;;2.6;1.4;;;;;;;23.18;58.99902;959.1326;;;;
2019/08/08 12:09:04;;;;;;;2.5;1.5;;;;;;;23.09;59.99219;959.1298;;;;
2019/08/08 12:11:28;;;;;;;1.6;1.3;;;;;;;23.35;59.41211;959.1664;;;;
2019/08/08 12:13:53;;;;;;;1.6;1.3;;;;;;;23.73;56.48633;959.1046;;;;
2019/08/08 12:16:19;;;;;;;1.3;1.2;;;;;;;23.95;58.22266;959.1177;;;;
2019/08/08 12:18:44;;;;;;;1.5;1.3;;;;;;;24.01;55.13281;959.1075;;;;
2019/08/08 12:21:09;;;;;;;2.3;1.5;;;;;;;24.25;52.12305;959.065;;;;
2019/08/08 12:23:34;;;;;;;1.4;1.3;;;;;;;24.47;51.53125;959.1041;;;;
2019/08/08 12:25:59;;;;;;;2.9;1.5;;;;;;;24.49;51.10547;959.0581;;;;
2019/08/08 12:28:24;;;;;;;2.2;1.3;;;;;;;24.5;53.67285;959.0355;;;;
2019/08/08 12:30:49;;;;;;;1.9;1.3;;;;;;;24.62;51.3584;959.051;;;;
2019/08/08 12:33:14;;;;;;;1.3;1.2;;;;;;;24.63;52.70313;959.0073;;;;
2019/08/08 12:35:39;;;;;;;1.6;1.5;;;;;;;24.92;52.21387;958.9738;;;;
2019/08/08 12:38:04;;;;;;;1.5;1.4;;;;;;;24.75;51.23047;958.9501;;;;
2019/08/08 12:40:29;;;;;;;1.6;1.3;;;;;;;24.86;50.35254;958.8795;;;;
2019/08/08 12:42:55;;;;;;;1.5;1.4;;;;;;;25.13;51.10742;958.9139;;;;
2019/08/08 12:45:20;;;;;;;1.8;1.4;;;;;;;25.29;49.04297;958.8602;;;;
2019/08/08 12:47:45;;;;;;;1.4;1.3;;;;;;;25.4;48.94922;958.8861;;;;
2019/08/08 12:50:10;;;;;;;2.4;1.5;;;;;;;25.12;49.64453;958.8741;;;;
2019/08/08 12:52:35;;;;;;;1.8;1.4;;;;;;;24.9;47.22852;958.838;;;;
2019/08/08 12:55:00;;;;;;;3.3;1.5;;;;;;;24.56;49.68848;958.8973;;;;
2019/08/08 12:57:26;;;;;;;2;1.5;;;;;;;24.73;49.48145;958.8608;;;;
2019/08/08 12:59:51;;;;;;;1.8;1.6;;;;;;;24.94;49.5166;958.8488;;;;
2019/08/08 13:02:16;;;;;;;2.2;1.5;;;;;;;25.17;48.31641;958.8434;;;;
2019/08/08 13:04:41;;;;;;;2.1;1.7;;;;;;;25.19;49.43652;958.8036;;;;
2019/08/08 13:07:06;;;;;;;2;1.4;;;;;;;25.4;48.25879;958.7609;;;;
2019/08/08 13:09:32;;;;;;;1.7;1.6;;;;;;;25.41;48.19922;958.6555;;;;
2019/08/08 13:12:16;;;;;;;1.9;1.6;;;;;;;25.37;46.83789;958.6536;;;;
2019/08/08 13:14:22;;;;;;;2.8;1.6;;;;;;;25.64;47.49805;958.6965;;;;
2019/08/08 13:16:47;;;;;;;1.9;1.6;;;;;;;25.87;48.37891;958.6631;;;;
2019/08/08 13:19:12;;;;;;;1.9;1.6;;;;;;;25.68;48.57422;958.7031;;;;
2019/08/08 13:21:37;;;;;;;1.9;1.6;;;;;;;25.65;47.06934;958.6428;;;;
2019/08/08 13:24:02;;;;;;;1.6;1.4;;;;;;;25.82;47.87402;958.6351;;;;
2019/08/08 13:26:27;;;;;;;2.1;1.6;;;;;;;25.9;48.24023;958.5815;;;;
2019/08/08 13:28:52;;;;;;;2;1.7;;;;;;;25.65;49.17773;958.5653;;;;
2019/08/08 13:31:18;;;;;;;2.1;1.4;;;;;;;25.84;49.11621;958.5486;;;;
2019/08/08 13:33:43;;;;;;;2.1;1.4;;;;;;;25.77;48.72656;958.5467;;;;
2019/08/08 13:36:08;;;;;;;2;1.6;;;;;;;26.05;45.2168;958.5532;;;;
2019/08/08 13:38:33;;;;;;;2.1;1.7;;;;;;;26.34;44.93555;958.5898;;;;
2019/08/08 13:40:59;;;;;;;3.6;1.8;;;;;;;26.19;45.37402;958.5797;;;;
2019/08/08 13:43:24;;;;;;;1.9;1.7;;;;;;;26.26;46.57422;958.6139;;;;
2019/08/08 13:45:49;;;;;;;1.8;1.4;;;;;;;25.96;45.88672;958.6024;;;;
2019/08/08 13:48:14;;;;;;;2;1.8;;;;;;;26.03;45.65527;958.555;;;;
2019/08/08 13:50:39;;;;;;;2.1;1.7;;;;;;;25.71;44.81348;958.4947;;;;
2019/08/08 13:53:04;;;;;;;2;1.6;;;;;;;25.96;48.22266;958.4838;;;;
2019/08/08 13:55:29;;;;;;;3;1.7;;;;;;;26.25;47.98047;958.5142;;;;
2019/08/08 13:57:54;;;;;;;1.9;1.4;;;;;;;26.3;43.89355;958.5483;;;;
2019/08/08 14:00:20;;;;;;;3.3;1.6;;;;;;;26.3;44.87207;958.532;;;;
2019/08/08 14:02:45;;;;;;;2.4;1.5;;;;;;;26.22;45.8418;958.5576;;;;
2019/08/08 14:05:10;;;;;;;1.6;1.5;;;;;;;26.47;45.84473;958.5861;;;;
2019/08/08 14:07:36;;;;;;;3.2;1.6;;;;;;;26.54;44.34766;958.6194;;;;
2019/08/08 14:10:01;;;;;;;3.5;2.3;;;;;;;26.28;43.46289;958.5513;;;;
2019/08/08 14:12:26;;;;;;;2.3;1.7;;;;;;;26.41;44.67969;958.5153;;;;
2019/08/08 14:14:51;;;;;;;1.6;1.5;;;;;;;26.43;44.40723;958.4753;;;;
2019/08/08 14:17:16;;;;;;;1.7;1.6;;;;;;;26.73;43.25586;958.5203;;;;
2019/08/08 14:19:41;;;;;;;2;1.6;;;;;;;26.64;43.40234;958.5239;;;;
2019/08/08 14:22:07;;;;;;;1.9;1.7;;;;;;;26.77;43.1875;958.5195;;;;
2019/08/08 14:24:32;;;;;;;2;1.6;;;;;;;26.8;42.9043;958.4659;;;;
2019/08/08 14:26:57;;;;;;;1.6;1.5;;;;;;;26.64;43.59277;958.4269;;;;
2019/08/08 14:29:22;;;;;;;2.1;1.8;;;;;;;26.65;43.57031;958.4086;;;;
2019/08/08 14:31:48;;;;;;;2.3;1.8;;;;;;;26.71;44.49512;958.4101;;;;
2019/08/08 14:34:13;;;;;;;2.7;1.7;;;;;;;26.78;43.49902;958.4614;;;;
2019/08/08 14:36:38;;;;;;;2.2;1.7;;;;;;;26.43;42.33105;958.519;;;;
2019/08/08 14:39:04;;;;;;;1.7;1.6;;;;;;;26.7;42.29688;958.4994;;;;
2019/08/08 14:41:29;;;;;;;2;1.6;;;;;;;26.53;42.52051;958.5631;;;;
2019/08/08 14:43:54;;;;;;;1.7;1.6;;;;;;;27.05;43.40527;958.6638;;;;
2019/08/08 14:46:19;;;;;;;1.8;1.6;;;;;;;27.38;43.06641;958.6876;;;;
2019/08/08 14:48:44;;;;;;;1.7;1.6;;;;;;;27.6;43.14746;958.7042;;;;
2019/08/08 14:51:09;;;;;;;2;1.7;;;;;;;28.3;41.51367;958.7399;;;;
2019/08/08 14:53:35;;;;;;;2;1.4;;;;;;;28.56;39.12891;958.7833;;;;
2019/08/08 14:56:00;;;;;;;2.8;1.8;;;;;;;28.99;38.86523;958.7383;;;;
2019/08/08 14:58:25;;;;;;;1.7;1.6;;;;;;;29.31;38.2207;958.7475;;;;
2019/08/08 15:00:50;;;;;;;1.8;1.6;;;;;;;29.25;36.88281;958.7576;;;;
2019/08/08 15:03:16;;;;;;;2.1;1.7;;;;;;;29.49;38.0791;958.7467;;;;
2019/08/08 15:05:41;;;;;;;2;1.5;;;;;;;29.42;38.42188;958.7802;;;;
2019/08/08 15:08:06;;;;;;;3.1;1.6;;;;;;;29.33;38.90723;958.7575;;;;
2019/08/08 15:10:31;;;;;;;1.7;1.5;;;;;;;29.2;38.12793;958.6772;;;;
2019/08/08 15:12:56;;;;;;;2;1.5;;;;;;;29.28;38.65039;958.7103;;;;
2019/08/08 15:15:21;;;;;;;1.7;1.4;;;;;;;29.03;37.83691;958.6113;;;;
2019/08/08 15:17:47;;;;;;;2;1.5;;;;;;;28.59;39.70703;958.6594;;;;
2019/08/08 15:20:12;;;;;;;2.3;1.7;;;;;;;28.72;38.90234;958.5947;;;;
2019/08/08 15:22:37;;;;;;;1.5;1.4;;;;;;;28.98;37.95313;958.6245;;;;
2019/08/08 15:25:03;;;;;;;2.6;1.5;;;;;;;28.55;40.00195;958.6345;;;;
2019/08/08 15:27:28;;;;;;;1.6;1.3;;;;;;;28.08;39.20605;958.6314;;;;
2019/08/08 15:29:53;;;;;;;2.8;1.7;;;;;;;27.91;40.74707;958.6453;;;;
2019/08/08 15:32:18;;;;;;;2.7;1.8;;;;;;;27.81;40.10352;958.5364;;;;
2019/08/08 15:34:43;;;;;;;2.1;1.6;;;;;;;27.01;42.19531;958.5139;;;;
2019/08/08 15:37:08;;;;;;;2;1.6;;;;;;;26.92;41.35059;958.5317;;;;
2019/08/08 15:39:33;;;;;;;1.9;1.6;;;;;;;26.91;41.79199;958.5193;;;;
2019/08/08 15:41:58;;;;;;;2.3;1.8;;;;;;;26.49;42.70605;958.4478;;;;
2019/08/08 15:44:23;;;;;;;1.6;1.5;;;;;;;26.3;42.72461;958.4916;;;;
2019/08/08 15:46:49;;;;;;;2.1;1.6;;;;;;;26.18;44.16797;958.4583;;;;
2019/08/08 15:49:14;;;;;;;2.2;1.6;;;;;;;26.21;43.8252;958.4492;;;;
2019/08/08 15:51:39;;;;;;;1.5;1.4;;;;;;;26.06;44.47852;958.4821;;;;
2019/08/08 15:54:05;;;;;;;2.8;1.7;;;;;;;25.99;45.68652;958.473;;;;
2019/08/08 15:56:30;;;;;;;2.8;1.7;;;;;;;25.98;43.83887;958.3987;;;;
2019/08/08 15:58:55;;;;;;;2.6;1.5;;;;;;;25.63;43.60156;958.3678;;;;
2019/08/08 16:01:21;;;;;;;2.4;1.6;;;;;;;25.63;43.95898;958.327;;;;